sensor_id;sensor_type;location;lat;lon;timestamp;pressure;altitude;pressure_sealevel;temperature;humidity
54172;BME280;40076;52.354;4.970;2023-11-19T00:24:00;100744.91;;;13.65;100.00
54172;BME280;40076;52.354;4.970;2023-11-19T07:51:17;100726.38;;;12.73;100.00
54172;BME280;40076;52.354;4.970;2023-11-19T08:08:10;100715.63;;;12.76;100.00
54172;BME280;40076;52.354;4.970;2023-11-19T08:23:48;100726.94;;;12.79;100.00
54172;BME280;40076;52.354;4.970;2023-11-19T08:26:47;100734.06;;;12.83;100.00
54172;BME280;40076;52.354;4.970;2023-11-19T08:29:27;100726.38;;;12.85;100.00
54172;BME280;40076;52.354;4.970;2023-11-19T08:32:10;100723.34;;;12.87;100.00
54172;BME280;40076;52.354;4.970;2023-11-19T08:34:50;100729.56;;;12.87;100.00
54172;BME280;40076;52.354;4.970;2023-11-19T08:52:34;100736.22;;;12.90;100.00
54172;BME280;40076;52.354;4.970;2023-11-19T09:37:20;100719.41;;;13.08;100.00
54172;BME280;40076;52.354;4.970;2023-11-19T09:40:05;100718.75;;;13.11;100.00
54172;BME280;40076;52.354;4.970;2023-11-19T09:43:05;100721.94;;;13.13;100.00
54172;BME280;40076;52.354;4.970;2023-11-19T09:46:09;100727.03;;;13.15;100.00
54172;BME280;40076;52.354;4.970;2023-11-19T09:49:04;100717.09;;;13.19;100.00
54172;BME280;40076;52.354;4.970;2023-11-19T09:51:35;100703.94;;;13.21;100.00
54172;BME280;40076;52.354;4.970;2023-11-19T09:56:58;100722.63;;;13.23;100.00
54172;BME280;40076;52.354;4.970;2023-11-19T10:09:05;100722.38;;;13.28;100.00
54172;BME280;40076;52.354;4.970;2023-11-19T10:11:57;100724.44;;;13.31;100.00
54172;BME280;40076;52.354;4.970;2023-11-19T10:14:32;100727.59;;;13.33;100.00
54172;BME280;40076;52.354;4.970;2023-11-19T10:17:12;100716.75;;;13.33;100.00
54172;BME280;40076;52.354;4.970;2023-11-19T10:19:49;100704.41;;;13.35;100.00
54172;BME280;40076;52.354;4.970;2023-11-19T10:22:17;100700.56;;;13.36;100.00
54172;BME280;40076;52.354;4.970;2023-11-19T10:24:43;100706.78;;;13.37;100.00
54172;BME280;40076;52.354;4.970;2023-11-19T10:27:35;100713.47;;;13.39;100.00
54172;BME280;40076;52.354;4.970;2023-11-19T10:30:55;100714.72;;;13.42;100.00
54172;BME280;40076;52.354;4.970;2023-11-19T10:33:34;100724.78;;;13.41;100.00
54172;BME280;40076;52.354;4.970;2023-11-19T10:36:00;100708.03;;;13.39;100.00
54172;BME280;40076;52.354;4.970;2023-11-19T10:38:28;100712.66;;;13.39;100.00
54172;BME280;40076;52.354;4.970;2023-11-19T10:41:08;100714.91;;;13.37;100.00
54172;BME280;40076;52.354;4.970;2023-11-19T10:43:45;100716.06;;;13.36;100.00
54172;BME280;40076;52.354;4.970;2023-11-19T10:46:14;100718.44;;;13.37;100.00
54172;BME280;40076;52.354;4.970;2023-11-19T10:48:40;100711.53;;;13.40;100.00
54172;BME280;40076;52.354;4.970;2023-11-19T10:51:07;100718.22;;;13.42;100.00
54172;BME280;40076;52.354;4.970;2023-11-19T10:53:42;100727.13;;;13.43;100.00
54172;BME280;40076;52.354;4.970;2023-11-19T10:56:12;100717.53;;;13.45;100.00
54172;BME280;40076;52.354;4.970;2023-11-19T10:58:44;100709.50;;;13.49;100.00
54172;BME280;40076;52.354;4.970;2023-11-19T11:01:16;100711.09;;;13.50;100.00
54172;BME280;40076;52.354;4.970;2023-11-19T11:03:44;100721.59;;;13.51;100.00
54172;BME280;40076;52.354;4.970;2023-11-19T11:06:11;100718.53;;;13.53;100.00
54172;BME280;40076;52.354;4.970;2023-11-19T11:08:39;100711.19;;;13.53;100.00
54172;BME280;40076;52.354;4.970;2023-11-19T11:11:05;100704.72;;;13.58;100.00
54172;BME280;40076;52.354;4.970;2023-11-19T11:13:31;100704.03;;;13.61;100.00
54172;BME280;40076;52.354;4.970;2023-11-19T11:15:57;100716.50;;;13.62;100.00
54172;BME280;40076;52.354;4.970;2023-11-19T11:18:23;100705.63;;;13.62;100.00
54172;BME280;40076;52.354;4.970;2023-11-19T11:20:52;100709.59;;;13.65;100.00
54172;BME280;40076;52.354;4.970;2023-11-19T11:26:20;100694.53;;;13.67;100.00
54172;BME280;40076;52.354;4.970;2023-11-19T11:32:15;100689.44;;;13.66;100.00
54172;BME280;40076;52.354;4.970;2023-11-19T11:38:08;100682.53;;;13.68;100.00
54172;BME280;40076;52.354;4.970;2023-11-19T11:40:43;100687.50;;;13.66;100.00
54172;BME280;40076;52.354;4.970;2023-11-19T11:43:46;100686.38;;;13.67;100.00
54172;BME280;40076;52.354;4.970;2023-11-19T11:49:04;100686.84;;;13.69;100.00
54172;BME280;40076;52.354;4.970;2023-11-19T11:57:10;100677.56;;;13.70;100.00
54172;BME280;40076;52.354;4.970;2023-11-19T12:02:12;100676.44;;;13.71;100.00
54172;BME280;40076;52.354;4.970;2023-11-19T12:04:39;100673.00;;;13.74;100.00
54172;BME280;40076;52.354;4.970;2023-11-19T12:07:12;100671.53;;;13.77;100.00
54172;BME280;40076;52.354;4.970;2023-11-19T12:09:40;100670.50;;;13.81;100.00
54172;BME280;40076;52.354;4.970;2023-11-19T12:12:17;100670.16;;;13.83;100.00
54172;BME280;40076;52.354;4.970;2023-11-19T12:15:06;100653.88;;;13.83;100.00
54172;BME280;40076;52.354;4.970;2023-11-19T12:19:57;100666.66;;;13.82;100.00
54172;BME280;40076;52.354;4.970;2023-11-19T12:22:25;100674.81;;;13.82;100.00
54172;BME280;40076;52.354;4.970;2023-11-19T12:24:53;100676.38;;;13.83;100.00
54172;BME280;40076;52.354;4.970;2023-11-19T12:27:19;100674.47;;;13.84;100.00
54172;BME280;40076;52.354;4.970;2023-11-19T12:29:47;100672.09;;;13.82;100.00
54172;BME280;40076;52.354;4.970;2023-11-19T12:32:15;100670.50;;;13.81;100.00
54172;BME280;40076;52.354;4.970;2023-11-19T12:34:44;100670.16;;;13.83;100.00
54172;BME280;40076;52.354;4.970;2023-11-19T12:37:10;100671.28;;;13.82;100.00
54172;BME280;40076;52.354;4.970;2023-11-19T12:39:36;100660.78;;;13.80;100.00
54172;BME280;40076;52.354;4.970;2023-11-19T12:42:04;100669.72;;;13.81;100.00
54172;BME280;40076;52.354;4.970;2023-11-19T12:44:30;100681.38;;;13.81;100.00
54172;BME280;40076;52.354;4.970;2023-11-19T12:47:09;100682.53;;;13.80;100.00
54172;BME280;40076;52.354;4.970;2023-11-19T12:49:55;100687.50;;;13.78;100.00
54172;BME280;40076;52.354;4.970;2023-11-19T12:52:20;100669.72;;;13.81;100.00
54172;BME280;40076;52.354;4.970;2023-11-19T12:54:48;100667.00;;;13.81;100.00
54172;BME280;40076;52.354;4.970;2023-11-19T12:57:14;100669.72;;;13.81;100.00
54172;BME280;40076;52.354;4.970;2023-11-19T12:59:42;100662.00;;;13.83;100.00
54172;BME280;40076;52.354;4.970;2023-11-19T13:02:08;100666.66;;;13.82;100.00
54172;BME280;40076;52.354;4.970;2023-11-19T13:04:36;100670.50;;;13.81;100.00
54172;BME280;40076;52.354;4.970;2023-11-19T13:07:04;100655.00;;;13.82;100.00
54172;BME280;40076;52.354;4.970;2023-11-19T13:09:37;100660.44;;;13.82;100.00
54172;BME280;40076;52.354;4.970;2023-11-19T13:12:15;100668.25;;;13.83;100.00
54172;BME280;40076;52.354;4.970;2023-11-19T13:14:41;100663.16;;;13.82;100.00
54172;BME280;40076;52.354;4.970;2023-11-19T13:17:13;100647.97;;;13.81;100.00
54172;BME280;40076;52.354;4.970;2023-11-19T13:19:39;100665.06;;;13.81;100.00
54172;BME280;40076;52.354;4.970;2023-11-19T13:22:04;100658.09;;;13.80;100.00
54172;BME280;40076;52.354;4.970;2023-11-19T13:24:35;100653.66;;;13.76;100.00
54172;BME280;40076;52.354;4.970;2023-11-19T13:27:11;100666.56;;;13.79;100.00
54172;BME280;40076;52.354;4.970;2023-11-19T13:30:06;100664.66;;;13.79;100.00
54172;BME280;40076;52.354;4.970;2023-11-19T13:32:43;100668.94;;;13.80;100.00
54172;BME280;40076;52.354;4.970;2023-11-19T13:35:29;100658.84;;;13.81;100.00
54172;BME280;40076;52.354;4.970;2023-11-19T13:38:05;100656.13;;;13.81;100.00
54172;BME280;40076;52.354;4.970;2023-11-19T13:40:34;100658.84;;;13.81;100.00
54172;BME280;40076;52.354;4.970;2023-11-19T13:43:00;100657.72;;;13.82;100.00
54172;BME280;40076;52.354;4.970;2023-11-19T13:45:41;100660.44;;;13.82;100.00
54172;BME280;40076;52.354;4.970;2023-11-19T13:48:09;100648.78;;;13.81;100.00
54172;BME280;40076;52.354;4.970;2023-11-19T13:53:27;100650.28;;;13.79;100.00
54172;BME280;40076;52.354;4.970;2023-11-19T13:56:13;100657.28;;;13.80;100.00
54172;BME280;40076;52.354;4.970;2023-11-19T13:58:41;100655.38;;;13.80;100.00
54172;BME280;40076;52.354;4.970;2023-11-19T14:01:13;100645.19;;;13.77;100.00
54172;BME280;40076;52.354;4.970;2023-11-19T14:07:11;100645.19;;;13.77;100.00
54172;BME280;40076;52.354;4.970;2023-11-19T14:09:45;100638.16;;;13.76;100.00
54172;BME280;40076;52.354;4.970;2023-11-19T14:12:23;100637.38;;;13.76;100.00
54172;BME280;40076;52.354;4.970;2023-11-19T14:15:05;100635.00;;;13.74;100.00
54172;BME280;40076;52.354;4.970;2023-11-19T14:18:11;100647.44;;;13.75;100.00
54172;BME280;40076;52.354;4.970;2023-11-19T14:21:01;100634.19;;;13.74;100.00
54172;BME280;40076;52.354;4.970;2023-11-19T14:24:14;100640.34;;;13.71;100.00
54172;BME280;40076;52.354;4.970;2023-11-19T14:26:54;100636.91;;;13.74;100.00
54172;BME280;40076;52.354;4.970;2023-11-19T14:29:27;100640.44;;;13.74;100.00
54172;BME280;40076;52.354;4.970;2023-11-19T14:32:11;100634.19;;;13.74;100.00
54172;BME280;40076;52.354;4.970;2023-11-19T14:34:41;100636.59;;;13.75;100.00
54172;BME280;40076;52.354;4.970;2023-11-19T14:37:25;100626.06;;;13.74;100.00
54172;BME280;40076;52.354;4.970;2023-11-19T14:40:26;100639.63;;;13.74;100.00
54172;BME280;40076;52.354;4.970;2023-11-19T14:43:33;100642.72;;;13.72;100.00
54172;BME280;40076;52.354;4.970;2023-11-19T14:46:21;100630.59;;;13.70;100.00
54172;BME280;40076;52.354;4.970;2023-11-19T14:52:05;100629.38;;;13.67;100.00
54172;BME280;40076;52.354;4.970;2023-11-19T14:54:49;100623.94;;;13.67;100.00
54172;BME280;40076;52.354;4.970;2023-11-19T14:57:27;100630.41;;;13.63;100.00
54172;BME280;40076;52.354;4.970;2023-11-19T15:03:01;100626.91;;;13.62;100.00
54172;BME280;40076;52.354;4.970;2023-11-19T15:08:42;100621.47;;;13.62;100.00
54172;BME280;40076;52.354;4.970;2023-11-19T15:21:51;100606.97;;;13.58;100.00
54172;BME280;40076;52.354;4.970;2023-11-19T15:24:48;100614.38;;;13.58;100.00
54172;BME280;40076;52.354;4.970;2023-11-19T15:27:32;100610.50;;;13.59;100.00
54172;BME280;40076;52.354;4.970;2023-11-19T15:30:05;100605.06;;;13.59;100.00
54172;BME280;40076;52.354;4.970;2023-11-19T15:32:48;100603.13;;;13.59;100.00
54172;BME280;40076;52.354;4.970;2023-11-19T15:42:53;100600.69;;;13.54;100.00
54172;BME280;40076;52.354;4.970;2023-11-19T15:55:11;100602.06;;;13.48;100.00
54172;BME280;40076;52.354;4.970;2023-11-19T16:00:31;100591.41;;;13.43;100.00
54172;BME280;40076;52.354;4.970;2023-11-19T16:03:16;100589.50;;;13.43;100.00
54172;BME280;40076;52.354;4.970;2023-11-19T16:05:42;100589.50;;;13.43;100.00
54172;BME280;40076;52.354;4.970;2023-11-19T16:08:16;100600.72;;;13.42;100.00
54172;BME280;40076;52.354;4.970;2023-11-19T16:10:42;100583.28;;;13.43;100.00
54172;BME280;40076;52.354;4.970;2023-11-19T16:13:18;100590.66;;;13.42;100.00
54172;BME280;40076;52.354;4.970;2023-11-19T16:15:51;100586.00;;;13.43;100.00
54172;BME280;40076;52.354;4.970;2023-11-19T16:18:17;100591.00;;;13.41;100.00
54172;BME280;40076;52.354;4.970;2023-11-19T16:20:42;100587.16;;;13.42;100.00
54172;BME280;40076;52.354;4.970;2023-11-19T16:23:10;100599.94;;;13.41;100.00
54172;BME280;40076;52.354;4.970;2023-11-19T16:25:37;100596.31;;;13.37;100.00
54172;BME280;40076;52.354;4.970;2023-11-19T16:28:05;100594.03;;;13.39;100.00
54172;BME280;40076;52.354;4.970;2023-11-19T16:30:44;100588.16;;;13.37;100.00
54172;BME280;40076;52.354;4.970;2023-11-19T16:33:13;100579.22;;;13.37;100.00
54172;BME280;40076;52.354;4.970;2023-11-19T16:35:38;100596.22;;;13.34;100.00
54172;BME280;40076;52.354;4.970;2023-11-19T16:38:07;100598.13;;;13.33;100.00
54172;BME280;40076;52.354;4.970;2023-11-19T16:40:32;100595.09;;;13.35;100.00
54172;BME280;40076;52.354;4.970;2023-11-19T16:43:08;100589.19;;;13.33;100.00
54172;BME280;40076;52.354;4.970;2023-11-19T16:45:41;100593.03;;;13.32;100.00
54172;BME280;40076;52.354;4.970;2023-11-19T16:48:16;100596.09;;;13.30;100.00
54172;BME280;40076;52.354;4.970;2023-11-19T16:50:58;100605.28;;;13.26;100.00
54172;BME280;40076;52.354;4.970;2023-11-19T16:53:44;100609.78;;;13.22;100.00
54172;BME280;40076;52.354;4.970;2023-11-19T16:56:10;100604.34;;;13.22;100.00
54172;BME280;40076;52.354;4.970;2023-11-19T16:59:06;100601.09;;;13.16;100.00
54172;BME280;40076;52.354;4.970;2023-11-19T17:01:41;100599.38;;;13.11;100.00
54172;BME280;40076;52.354;4.970;2023-11-19T17:04:15;100594.75;;;13.12;100.00
54172;BME280;40076;52.354;4.970;2023-11-19T17:06:54;100594.19;;;13.06;100.00
54172;BME280;40076;52.354;4.970;2023-11-19T17:09:38;100595.66;;;13.04;100.00
54172;BME280;40076;52.354;4.970;2023-11-19T17:12:23;100597.13;;;13.01;100.00
54172;BME280;40076;52.354;4.970;2023-11-19T17:15:02;100595.88;;;12.99;100.00
54172;BME280;40076;52.354;4.970;2023-11-19T17:17:35;100591.16;;;12.96;100.00
54172;BME280;40076;52.354;4.970;2023-11-19T17:20:24;100593.06;;;12.95;100.00
54172;BME280;40076;52.354;4.970;2023-11-19T17:23:29;100588.78;;;12.94;100.00
54172;BME280;40076;52.354;4.970;2023-11-19T17:26:10;100588.31;;;12.92;100.00
54172;BME280;40076;52.354;4.970;2023-11-19T17:29:05;100591.69;;;12.89;100.00
54172;BME280;40076;52.354;4.970;2023-11-19T17:32:10;100604.13;;;12.90;100.00
54172;BME280;40076;52.354;4.970;2023-11-19T17:38:45;100593.28;;;12.90;100.00
54172;BME280;40076;52.354;4.970;2023-11-19T17:41:38;100589.78;;;12.90;100.00
54172;BME280;40076;52.354;4.970;2023-11-19T17:44:26;100603.69;;;12.88;100.00
54172;BME280;40076;52.354;4.970;2023-11-19T17:47:12;100588.88;;;12.86;100.00
54172;BME280;40076;52.354;4.970;2023-11-19T17:50:15;100598.28;;;12.88;100.00
54172;BME280;40076;52.354;4.970;2023-11-19T17:53:01;100586.28;;;12.89;100.00
54172;BME280;40076;52.354;4.970;2023-11-19T17:59:04;100584.94;;;12.83;100.00
54172;BME280;40076;52.354;4.970;2023-11-19T18:15:42;100570.94;;;12.81;100.00
54172;BME280;40076;52.354;4.970;2023-11-19T18:26:09;100564.34;;;12.82;100.00
54172;BME280;40076;52.354;4.970;2023-11-19T18:29:27;100569.44;;;12.84;100.00
54172;BME280;40076;52.354;4.970;2023-11-19T18:36:21;100574.19;;;12.87;100.00
54172;BME280;40076;52.354;4.970;2023-11-19T18:45:47;100562.56;;;12.86;100.00
54172;BME280;40076;52.354;4.970;2023-11-19T18:52:33;100569.34;;;12.92;100.00
54172;BME280;40076;52.354;4.970;2023-11-19T18:59:00;100568.22;;;12.93;100.00
54172;BME280;40076;52.354;4.970;2023-11-19T19:05:48;100575.22;;;12.94;100.00
54172;BME280;40076;52.354;4.970;2023-11-19T19:09:09;100578.03;;;12.98;100.00
54172;BME280;40076;52.354;4.970;2023-11-19T19:12:33;100569.53;;;12.99;100.00
54172;BME280;40076;52.354;4.970;2023-11-19T19:15:25;100562.22;;;13.00;100.00
54172;BME280;40076;52.354;4.970;2023-11-19T19:18:29;100553.28;;;12.99;100.00
54172;BME280;40076;52.354;4.970;2023-11-19T19:27:32;100563.91;;;13.04;100.00
54172;BME280;40076;52.354;4.970;2023-11-19T19:33:46;100575.97;;;13.07;100.00
54172;BME280;40076;52.354;4.970;2023-11-19T19:40:01;100572.13;;;13.08;100.00
54172;BME280;40076;52.354;4.970;2023-11-19T19:46:20;100570.78;;;13.14;100.00
54172;BME280;40076;52.354;4.970;2023-11-19T19:49:10;100557.22;;;13.14;100.00
54172;BME280;40076;52.354;4.970;2023-11-19T19:52:23;100576.34;;;13.18;100.00
54172;BME280;40076;52.354;4.970;2023-11-19T19:55:11;100555.78;;;13.17;100.00
54172;BME280;40076;52.354;4.970;2023-11-19T19:58:29;100563.13;;;13.16;100.00
54172;BME280;40076;52.354;4.970;2023-11-19T20:01:26;100558.94;;;13.19;100.00
54172;BME280;40076;52.354;4.970;2023-11-19T20:07:38;100564.78;;;13.21;100.00
54172;BME280;40076;52.354;4.970;2023-11-19T20:30:39;100587.88;;;13.27;100.00
54172;BME280;40076;52.354;4.970;2023-11-19T20:46:43;100583.91;;;13.24;100.00
54172;BME280;40076;52.354;4.970;2023-11-19T20:49:26;100601.31;;;13.23;100.00
54172;BME280;40076;52.354;4.970;2023-11-19T20:55:19;100606.41;;;13.25;100.00
54172;BME280;40076;52.354;4.970;2023-11-19T20:58:21;100593.16;;;13.23;100.00
54172;BME280;40076;52.354;4.970;2023-11-19T21:01:18;100603.34;;;13.26;100.00
54172;BME280;40076;52.354;4.970;2023-11-19T21:04:03;100611.50;;;13.26;100.00
54172;BME280;40076;52.354;4.970;2023-11-19T21:06:41;100615.00;;;13.27;100.00
54172;BME280;40076;52.354;4.970;2023-11-19T21:09:35;100607.28;;;13.29;100.00
